createdAt,value
2022-08-01T00:00:15.556Z,6
2022-08-01T00:05:15.642Z,5
2022-08-01T00:10:15.704Z,5
2022-08-01T00:15:15.746Z,5
2022-08-01T00:20:15.630Z,4
2022-08-01T00:25:15.746Z,5
2022-08-01T00:30:15.763Z,4
2022-08-01T00:35:15.696Z,4
2022-08-01T00:40:15.778Z,3
2022-08-01T00:45:15.685Z,3
2022-08-01T00:50:15.747Z,4
2022-08-01T00:55:15.700Z,4
2022-08-01T01:00:15.653Z,4
2022-08-01T01:05:15.712Z,4
2022-08-01T01:10:15.771Z,3
2022-08-01T01:15:15.825Z,3
2022-08-01T01:20:15.875Z,1
2022-08-01T01:25:15.802Z,1
2022-08-01T01:30:15.798Z,1
2022-08-01T01:35:15.862Z,2
2022-08-01T01:40:15.828Z,1
2022-08-01T01:45:15.783Z,1
2022-08-01T01:50:15.808Z,1
2022-08-01T01:55:15.928Z,1
2022-08-01T02:00:15.859Z,1
2022-08-01T02:05:15.846Z,1
2022-08-01T02:10:15.963Z,1
2022-08-01T02:15:16.132Z,1
2022-08-01T02:20:15.880Z,1
2022-08-01T02:25:16.153Z,1
2022-08-01T02:30:15.971Z,2
2022-08-01T02:35:15.902Z,3
2022-08-01T02:40:16.125Z,3
2022-08-01T02:45:15.956Z,4
2022-08-01T02:50:15.965Z,3
2022-08-01T02:55:15.971Z,5
2022-08-01T03:00:16.039Z,5
2022-08-01T03:05:15.937Z,4
2022-08-01T03:10:16.083Z,5
2022-08-01T03:15:15.999Z,6
2022-08-01T03:20:16.099Z,6
2022-08-01T03:25:16.010Z,6
2022-08-01T03:30:16.063Z,6
2022-08-01T03:35:16.122Z,5
2022-08-01T03:40:16.201Z,7
2022-08-01T03:45:16.215Z,7
2022-08-01T03:50:16.228Z,7
2022-08-01T03:55:16.161Z,8
2022-08-01T04:00:17.154Z,7
2022-08-01T04:05:17.396Z,6
2022-08-01T04:10:17.215Z,6
2022-08-01T04:15:17.201Z,6
2022-08-01T04:20:17.260Z,6
2022-08-01T04:25:17.174Z,6
2022-08-01T04:30:18.066Z,6
2022-08-01T04:35:23.557Z,5
2022-08-01T04:40:17.320Z,5
2022-08-01T04:45:17.212Z,5
2022-08-01T04:50:17.186Z,4
2022-08-01T04:55:17.227Z,4
2022-08-01T05:00:17.223Z,6
2022-08-01T05:05:17.348Z,6
2022-08-01T05:10:17.250Z,6
2022-08-01T05:15:17.449Z,7
2022-08-01T05:20:17.330Z,6
2022-08-01T05:25:19.987Z,5
2022-08-01T05:30:17.452Z,4
2022-08-01T05:35:17.568Z,4
2022-08-01T05:40:17.418Z,5
2022-08-01T05:45:17.456Z,5
2022-08-01T05:50:17.368Z,6
2022-08-01T05:55:17.399Z,5
2022-08-01T06:00:15.380Z,3
2022-08-01T06:05:15.524Z,4
2022-08-01T06:10:15.520Z,3
2022-08-01T06:15:15.405Z,3
2022-08-01T06:20:15.428Z,3
2022-08-01T06:25:19.370Z,1
2022-08-01T06:30:15.587Z,2
2022-08-01T06:35:15.577Z,1
2022-08-01T06:40:17.470Z,3
2022-08-01T06:45:15.550Z,4
2022-08-01T06:50:15.518Z,1
2022-08-01T06:55:15.473Z,2
2022-08-01T07:00:15.521Z,3
2022-08-01T07:05:15.590Z,2
2022-08-01T07:10:15.538Z,1
2022-08-01T07:15:15.547Z,2
2022-08-01T07:20:16.800Z,3
2022-08-01T07:25:15.751Z,8
2022-08-01T07:30:15.740Z,8
2022-08-01T07:35:15.850Z,8
2022-08-01T07:40:15.574Z,8
2022-08-01T07:45:15.653Z,8
2022-08-01T07:50:15.640Z,8
2022-08-01T07:55:16.439Z,7
2022-08-01T08:00:15.661Z,6
2022-08-01T08:05:15.798Z,3
2022-08-01T08:10:15.605Z,3
2022-08-01T08:15:15.795Z,2
2022-08-01T08:20:15.757Z,2
2022-08-01T08:25:15.710Z,2
2022-08-01T08:30:15.790Z,2
2022-08-01T08:35:20.108Z,1
2022-08-01T08:40:15.722Z,0
2022-08-01T08:45:15.974Z,1
2022-08-01T08:50:15.868Z,3
2022-08-01T08:55:15.808Z,2
2022-08-01T09:00:15.783Z,2
2022-08-01T09:05:19.447Z,1
2022-08-01T09:10:15.767Z,0
2022-08-01T09:15:15.781Z,1
2022-08-01T09:20:15.784Z,0
2022-08-01T09:25:15.897Z,1
2022-08-01T09:30:17.202Z,2
2022-08-01T09:35:15.880Z,4
2022-08-01T09:40:15.854Z,6
2022-08-01T09:45:23.236Z,4
2022-08-01T09:50:16.078Z,7
2022-08-01T09:55:16.055Z,6
2022-08-01T10:00:35.697Z,8
2022-08-01T10:05:21.156Z,7
2022-08-01T10:10:16.073Z,8
2022-08-01T10:15:15.934Z,7
2022-08-01T10:20:29.798Z,6
2022-08-01T10:25:16.042Z,6
2022-08-01T10:30:23.446Z,6
2022-08-01T10:35:16.000Z,6
2022-08-01T10:40:29.833Z,7
2022-08-01T10:45:16.009Z,7
2022-08-01T10:50:21.981Z,6
2022-08-01T10:55:16.267Z,5
2022-08-01T11:00:16.066Z,4
2022-08-01T11:05:16.070Z,5
2022-08-01T11:10:16.188Z,4
2022-08-01T11:15:16.062Z,5
2022-08-01T11:20:16.127Z,5
2022-08-01T11:25:16.128Z,5
2022-08-01T11:30:16.222Z,5
2022-08-01T11:35:17.091Z,4
2022-08-01T11:40:16.119Z,3
2022-08-01T11:45:18.523Z,4
2022-08-01T11:50:16.232Z,4
2022-08-01T11:55:16.730Z,4
2022-08-01T12:00:17.526Z,2
2022-08-01T12:05:16.257Z,2
2022-08-01T12:10:16.275Z,1
2022-08-01T12:15:16.373Z,2
2022-08-01T12:20:16.367Z,3
2022-08-01T12:25:16.280Z,4
2022-08-01T12:30:16.411Z,7
2022-08-01T12:35:18.418Z,9
2022-08-01T12:40:16.306Z,8
2022-08-01T12:45:16.351Z,6
2022-08-01T12:50:16.345Z,5
2022-08-01T12:55:16.380Z,9
2022-08-01T13:00:16.258Z,8
2022-08-01T13:05:16.292Z,11
2022-08-01T13:10:16.295Z,11
2022-08-01T13:15:16.368Z,11
2022-08-01T13:20:16.348Z,11
2022-08-01T13:25:20.792Z,10
2022-08-01T13:30:16.340Z,9
2022-08-01T13:35:16.529Z,8
2022-08-01T13:40:16.462Z,6
2022-08-01T13:45:16.383Z,6
2022-08-01T13:50:16.394Z,3
2022-08-01T13:55:16.493Z,6
2022-08-01T14:00:16.434Z,4
2022-08-01T14:05:16.421Z,6
2022-08-01T14:10:19.409Z,7
2022-08-01T14:15:36.866Z,4
2022-08-01T14:20:16.527Z,6
2022-08-01T14:25:24.022Z,4
2022-08-01T14:30:16.511Z,4
2022-08-01T14:35:16.571Z,5
2022-08-01T14:40:16.578Z,4
2022-08-01T14:45:16.577Z,6
2022-08-01T14:50:16.875Z,4
2022-08-01T14:55:16.794Z,6
2022-08-01T15:00:16.739Z,5
2022-08-01T15:05:16.754Z,7
2022-08-01T15:10:16.591Z,8
2022-08-01T15:15:16.590Z,12
2022-08-01T15:20:16.627Z,12
2022-08-01T15:25:16.861Z,13
2022-08-01T15:30:16.762Z,11
2022-08-01T15:35:16.611Z,12
2022-08-01T15:40:16.728Z,15
2022-08-01T15:45:37.488Z,13
2022-08-01T15:50:16.740Z,13
2022-08-01T15:55:16.799Z,13
2022-08-01T16:00:17.014Z,13
2022-08-01T16:05:17.201Z,15
2022-08-01T16:10:16.805Z,11
2022-08-01T16:15:16.728Z,14
2022-08-01T16:20:16.812Z,13
2022-08-01T16:25:16.732Z,14
2022-08-01T16:30:16.788Z,14
2022-08-01T16:35:16.884Z,15
2022-08-01T16:40:16.778Z,14
2022-08-01T16:45:16.881Z,14
2022-08-01T16:50:16.978Z,14
2022-08-01T16:55:16.939Z,13
2022-08-01T17:00:21.149Z,13
2022-08-01T17:05:16.883Z,12
2022-08-01T17:10:16.898Z,12
2022-08-01T17:15:17.072Z,14
2022-08-01T17:20:16.860Z,16
2022-08-01T17:25:17.090Z,14
2022-08-01T17:30:16.897Z,15
2022-08-01T17:35:16.923Z,14
2022-08-01T17:40:38.934Z,16
2022-08-01T17:45:28.153Z,14
2022-08-01T17:50:17.003Z,14
2022-08-01T17:55:55.350Z,18
2022-08-01T18:00:16.973Z,18
2022-08-01T18:05:16.987Z,19
2022-08-01T18:10:17.003Z,17
2022-08-01T18:15:17.001Z,20
2022-08-01T18:20:17.110Z,21
2022-08-01T18:25:16.977Z,21
2022-08-01T18:30:17.149Z,20
2022-08-01T18:35:17.055Z,19
2022-08-01T18:40:22.396Z,19
2022-08-01T18:45:17.146Z,20
2022-08-01T18:50:17.235Z,19
2022-08-01T18:55:17.159Z,22
2022-08-01T19:00:17.094Z,19
2022-08-01T19:05:17.090Z,21
2022-08-01T19:10:17.121Z,21
2022-08-01T19:15:17.347Z,17
2022-08-01T19:20:17.116Z,14
2022-08-01T19:25:17.226Z,18
2022-08-01T19:30:17.164Z,18
2022-08-01T19:35:17.489Z,17
2022-08-01T19:40:26.809Z,15
2022-08-01T19:45:17.304Z,21
2022-08-01T19:50:17.316Z,20
2022-08-01T19:55:17.265Z,21
2022-08-01T20:00:23.933Z,19
2022-08-01T20:05:17.419Z,18
2022-08-01T20:10:17.223Z,18
2022-08-01T20:15:17.201Z,17
2022-08-01T20:20:17.417Z,18
2022-08-01T20:25:17.292Z,18
2022-08-01T20:30:17.279Z,21
2022-08-01T20:35:17.356Z,22
2022-08-01T20:40:17.329Z,23
2022-08-01T20:45:18.752Z,22
2022-08-01T20:50:29.413Z,20
2022-08-01T20:55:17.348Z,21
2022-08-01T21:00:17.464Z,21
2022-08-01T21:05:17.354Z,21
2022-08-01T21:10:15.524Z,20
2022-08-01T21:15:15.541Z,18
2022-08-01T21:20:15.534Z,19
2022-08-01T21:25:15.415Z,19
2022-08-01T21:30:15.732Z,18
2022-08-01T21:35:16.202Z,18
2022-08-01T21:40:15.575Z,19
2022-08-01T21:45:15.473Z,19
2022-08-01T21:50:15.494Z,19
2022-08-01T21:55:16.012Z,20
2022-08-01T22:00:25.014Z,18
2022-08-01T22:05:15.459Z,18
2022-08-01T22:10:15.501Z,16
2022-08-01T22:15:15.519Z,18
2022-08-01T22:20:15.541Z,18
2022-08-01T22:25:15.533Z,16
2022-08-01T22:30:15.560Z,16
2022-08-01T22:35:15.698Z,16
2022-08-01T22:40:15.639Z,17
2022-08-01T22:45:15.578Z,18
2022-08-01T22:50:15.741Z,17
2022-08-01T22:55:15.619Z,16
2022-08-01T23:00:15.696Z,18
2022-08-01T23:05:15.662Z,16
2022-08-01T23:10:15.645Z,15
2022-08-01T23:15:15.646Z,16
2022-08-01T23:20:15.639Z,15
2022-08-01T23:25:15.660Z,15
2022-08-01T23:30:15.712Z,15
2022-08-01T23:35:15.758Z,14
2022-08-01T23:40:15.720Z,14
2022-08-01T23:45:15.712Z,15
2022-08-01T23:50:15.786Z,14
2022-08-01T23:55:15.914Z,13
